KBRG/BRG METAR and TAF weather

Enter ICAO airport designator
Station Type Date Time Source
KBRG METAR 2020/07/06 08:55 UTC NOAA

KBRG 060855Z AUTO 23007KT 10SM CLR 22/05 A3012 RMK AO2 T02150054


Station Type Date Time Source
KBRG Decoded METAR 2020/07/06 08:55 UTC NOAA

Station name not available
Jul 06, 2020 - 04:55 AM EDT / 2020.07.06 0855 UTC
Wind: from the SW (230 degrees) at 8 MPH (7 KT):0
Visibility: 10 mile(s):0
Sky conditions: clear
Temperature: 70.7 F (21.5 C)
Dew Point: 41.7 F (5.4 C)
Relative Humidity: 34%
Pressure (altimeter): 30.12 in. Hg (1019 hPa)
ob: KBRG 060855Z AUTO 23007KT 10SM CLR 22/05 A3012 RMK AO2 T02150054
cycle: 9

Station Type Date Time Source
KBRG TAF 2012/07/03 12:12 UTC NOAA

TAF SKBRG 031000Z 031212 VRB02KT 9999 FEW017 SCT080
TEMPO 0312/0317 11005KT VCTS - DZRAFEW015CB BKN070
TEMPO 0318/0323 TSRA FEW017CB BKN070
TEMPO 0400/0402 VCTS FEW020CB
TEMPO 0402/0406 -DZ SCT015CB
TEMPO 0408/0412 00000KT 5000 BCFG FEW005 TX23/0319Z TN10/0411Z

Example: see airport list